Time;durP1;ratioP1;P1;durP2;ratioP2;P2;SDS_P1;SDS_P2;PMS_P1;PMS_P2;Temp;Humidity;BMP_temperature;BMP_pressure;BME280_temperature;BME280_humidity;BME280_pressure;Samples;Min_cycle;Max_cycle;Signal;HPM_P1;HPM_P2
2023/02/12 00:00:34;;;;;;;4.22;3.83;;;;;;;;;;4509473;28;20763;-62
2023/02/12 00:02:44;;;;;;;4.68;4.28;;;;;;;;;;4507109;28;20045;-62
2023/02/12 00:04:54;;;;;;;3.10;2.88;;;;;;;;;;4509695;28;20121;-62
2023/02/12 00:07:05;;;;;;;2.72;2.53;;;;;;;;;;4508229;28;20490;-63
2023/02/12 00:09:15;;;;;;;3.70;3.40;;;;;;;;;;4510329;28;20407;-63
2023/02/12 00:11:27;;;;;;;3.35;3.05;;;;;;;;;;4507604;28;20048;-62
2023/02/12 00:13:38;;;;;;;3.38;3.08;;;;;;;;;;4508916;28;20041;-62
2023/02/12 00:15:48;;;;;;;3.15;2.90;;;;;;;;;;4508066;28;20048;-62
2023/02/12 00:17:59;;;;;;;3.10;2.90;;;;;;;;;;4507569;28;20034;-62
2023/02/12 00:20:09;;;;;;;3.83;3.53;;;;;;;;;;4509085;28;20038;-63
2023/02/12 00:22:19;;;;;;;3.20;2.90;;;;;;;;;;4509156;28;20084;-62
2023/02/12 00:24:30;;;;;;;4.57;4.18;;;;;;;;;;4507467;28;20037;-62
2023/02/12 00:26:40;;;;;;;4.85;4.45;;;;;;;;;;4508487;28;20042;-62
2023/02/12 00:28:51;;;;;;;2.83;2.60;;;;;;;;;;4508484;28;20029;-62
2023/02/12 00:31:12;;;;;;;2.90;2.70;;;;;;;;;;4510071;28;20498;-62
2023/02/12 00:33:22;;;;;;;2.95;2.75;;;;;;;;;;4514982;28;20049;-62
2023/02/12 00:35:32;;;;;;;3.13;2.83;;;;;;;;;;4507227;28;20065;-62
2023/02/12 00:37:43;;;;;;;4.57;4.18;;;;;;;;;;4509375;28;20052;-63
2023/02/12 00:39:53;;;;;;;3.78;3.45;;;;;;;;;;4512202;28;20032;-62
2023/02/12 00:42:03;;;;;;;3.40;3.13;;;;;;;;;;4517117;28;20533;-62
2023/02/12 00:44:14;;;;;;;3.28;3.00;;;;;;;;;;4507126;28;20064;-62
2023/02/12 00:46:24;;;;;;;3.15;2.90;;;;;;;;;;4507199;28;20042;-62
2023/02/12 00:48:35;;;;;;;5.05;4.65;;;;;;;;;;4507987;28;20061;-63
2023/02/12 00:50:46;;;;;;;3.08;2.88;;;;;;;;;;4507956;28;20578;-62
2023/02/12 00:52:57;;;;;;;3.08;2.80;;;;;;;;;;4508899;28;20043;-62
2023/02/12 00:55:08;;;;;;;2.78;2.58;;;;;;;;;;4506597;28;20041;-62
2023/02/12 00:57:18;;;;;;;3.30;3.00;;;;;;;;;;4515898;28;20101;-62
2023/02/12 00:59:29;;;;;;;4.30;3.95;;;;;;;;;;4510295;28;20045;-62
2023/02/12 01:01:40;;;;;;;3.50;3.20;;;;;;;;;;4508306;28;20048;-62
2023/02/12 01:03:50;;;;;;;3.00;2.80;;;;;;;;;;4507835;28;20021;-61
2023/02/12 01:06:03;;;;;;;3.17;2.88;;;;;;;;;;4511672;28;20041;-62
2023/02/12 01:08:15;;;;;;;2.90;2.70;;;;;;;;;;4507797;28;20034;-63
2023/02/12 01:10:25;;;;;;;2.75;2.55;;;;;;;;;;4508057;28;20048;-62
2023/02/12 01:12:35;;;;;;;3.60;3.30;;;;;;;;;;4508759;28;20045;-62
2023/02/12 01:14:46;;;;;;;2.60;2.40;;;;;;;;;;4508383;28;20181;-62
2023/02/12 01:16:56;;;;;;;2.70;2.50;;;;;;;;;;4507999;28;20037;-62
2023/02/12 01:19:06;;;;;;;2.97;2.78;;;;;;;;;;4508968;28;20863;-62
2023/02/12 01:21:21;;;;;;;2.60;2.40;;;;;;;;;;4507510;28;20026;-63
2023/02/12 01:23:32;;;;;;;2.65;2.40;;;;;;;;;;4507403;28;20065;-62
2023/02/12 01:25:42;;;;;;;2.45;2.25;;;;;;;;;;4509583;28;20116;-61
2023/02/12 01:27:53;;;;;;;2.60;2.40;;;;;;;;;;4506305;28;20053;-61
2023/02/12 01:30:05;;;;;;;2.80;2.60;;;;;;;;;;4521764;28;20041;-61
2023/02/12 01:32:17;;;;;;;2.60;2.40;;;;;;;;;;4515885;28;20043;-61
2023/02/12 01:34:27;;;;;;;2.60;2.40;;;;;;;;;;4511835;28;20046;-61
2023/02/12 01:36:38;;;;;;;2.50;2.30;;;;;;;;;;4505234;28;20040;-61
2023/02/12 01:38:48;;;;;;;2.65;2.45;;;;;;;;;;4507053;28;20037;-61
2023/02/12 01:41:07;;;;;;;2.90;2.70;;;;;;;;;;4509486;28;20037;-61
2023/02/12 01:43:17;;;;;;;2.53;2.33;;;;;;;;;;4514858;28;21171;-61
2023/02/12 01:45:27;;;;;;;2.60;2.40;;;;;;;;;;4506735;28;20056;-61
2023/02/12 01:47:42;;;;;;;2.35;2.15;;;;;;;;;;4511248;28;20040;-62
2023/02/12 01:49:52;;;;;;;2.40;2.20;;;;;;;;;;4506327;28;20065;-62
2023/02/12 01:52:05;;;;;;;2.50;2.30;;;;;;;;;;4510427;28;20129;-61
2023/02/12 01:54:16;;;;;;;2.42;2.22;;;;;;;;;;4506811;28;20415;-61
2023/02/12 01:56:27;;;;;;;2.50;2.30;;;;;;;;;;4510622;28;20029;-62
2023/02/12 01:58:40;;;;;;;2.67;2.47;;;;;;;;;;4504847;28;21327;-61
2023/02/12 02:00:53;;;;;;;2.20;2.00;;;;;;;;;;4514801;28;20040;-62
2023/02/12 02:03:04;;;;;;;2.50;2.30;;;;;;;;;;4508073;28;20049;-60
2023/02/12 02:05:16;;;;;;;2.97;2.67;;;;;;;;;;4506388;28;20029;-61
2023/02/12 02:07:27;;;;;;;2.40;2.20;;;;;;;;;;4506048;28;20777;-61
2023/02/12 02:09:37;;;;;;;2.60;2.40;;;;;;;;;;4506196;28;20036;-61
2023/02/12 02:14:32;;;;;;;2.60;2.40;;;;;;;;;;4509686;28;20136;-61
2023/02/12 02:16:48;;;;;;;2.40;2.20;;;;;;;;;;4500773;28;20076;-62
2023/02/12 02:19:15;;;;;;;2.40;2.20;;;;;;;;;;4516798;28;20037;-61
2023/02/12 02:21:32;;;;;;;2.28;2.08;;;;;;;;;;4514839;28;20037;-62
2023/02/12 02:24:01;;;;;;;2.58;2.38;;;;;;;;;;4513117;28;20064;-61
2023/02/12 02:26:11;;;;;;;2.40;2.20;;;;;;;;;;4506462;28;20041;-60
2023/02/12 02:28:34;;;;;;;2.10;1.95;;;;;;;;;;4506439;28;20655;-61
2023/02/12 02:30:53;;;;;;;2.22;2.03;;;;;;;;;;4506883;28;20205;-61
2023/02/12 02:33:22;;;;;;;2.35;2.15;;;;;;;;;;4507143;28;20037;-61
2023/02/12 02:35:35;;;;;;;2.40;2.20;;;;;;;;;;4505984;28;20037;-61
2023/02/12 02:37:51;;;;;;;2.15;2.00;;;;;;;;;;4522403;28;20632;-60
2023/02/12 02:40:10;;;;;;;2.55;2.20;;;;;;;;;;4509209;28;20042;-61
2023/02/12 02:42:25;;;;;;;2.10;1.90;;;;;;;;;;4509830;28;20143;-61
2023/02/12 02:44:43;;;;;;;2.03;1.92;;;;;;;;;;4508808;28;20788;-61
2023/02/12 02:46:55;;;;;;;2.65;2.45;;;;;;;;;;4509568;28;20045;-61
2023/02/12 02:49:07;;;;;;;2.25;2.05;;;;;;;;;;4508672;28;20125;-61
2023/02/12 02:51:19;;;;;;;2.30;2.10;;;;;;;;;;4509537;28;20626;-61
2023/02/12 02:53:32;;;;;;;1.95;1.85;;;;;;;;;;4508769;28;20078;-61
2023/02/12 02:55:45;;;;;;;2.33;2.13;;;;;;;;;;4509262;28;20057;-61
2023/02/12 02:58:01;;;;;;;2.30;2.10;;;;;;;;;;4519032;28;20041;-61
2023/02/12 03:00:19;;;;;;;2.17;2.07;;;;;;;;;;4502493;28;20038;-61
2023/02/12 03:02:36;;;;;;;2.17;1.98;;;;;;;;;;4511146;28;20049;-61
2023/02/12 03:04:46;;;;;;;;;;;;;;;;;;4511348;28;21482;-62
2023/02/12 03:07:09;;;;;;;2.33;2.13;;;;;;;;;;4508979;28;19924;-60
2023/02/12 03:09:35;;;;;;;2.35;2.15;;;;;;;;;;4508948;28;21239;-61
2023/02/12 03:11:46;;;;;;;2.35;2.15;;;;;;;;;;4508508;28;20124;-61
2023/02/12 03:14:12;;;;;;;2.28;2.08;;;;;;;;;;4509066;28;20176;-61
2023/02/12 03:16:24;;;;;;;1.98;1.88;;;;;;;;;;4511424;28;20112;-63
2023/02/12 03:18:37;;;;;;;2.28;2.08;;;;;;;;;;4508253;28;20208;-62
2023/02/12 03:20:51;;;;;;;1.90;1.80;;;;;;;;;;4518792;28;20041;-61
2023/02/12 03:23:04;;;;;;;2.03;1.92;;;;;;;;;;4507023;28;20029;-61
2023/02/12 03:25:17;;;;;;;2.03;1.90;;;;;;;;;;4508103;28;20590;-61
2023/02/12 03:27:38;;;;;;;2.00;1.90;;;;;;;;;;4507704;28;20038;-61
2023/02/12 03:29:48;;;;;;;2.10;1.90;;;;;;;;;;4509374;28;20506;-61
2023/02/12 03:32:19;;;;;;;2.20;2.00;;;;;;;;;;4508007;28;20046;-61
2023/02/12 03:34:44;;;;;;;2.05;1.95;;;;;;;;;;4506110;28;20049;-61
2023/02/12 03:37:10;;;;;;;2.10;1.90;;;;;;;;;;4508973;28;20813;-61
2023/02/12 03:39:27;;;;;;;1.80;1.70;;;;;;;;;;4510332;28;20045;-62
2023/02/12 03:41:42;;;;;;;2.08;1.98;;;;;;;;;;4509203;28;20581;-61
2023/02/12 03:43:54;;;;;;;1.50;1.40;;;;;;;;;;4508827;28;20176;-61
2023/02/12 03:46:05;;;;;;;1.80;1.70;;;;;;;;;;4508616;28;20605;-61
2023/02/12 03:48:34;;;;;;;2.17;1.98;;;;;;;;;;4508252;28;20018;-61
2023/02/12 03:50:44;;;;;;;2.00;1.90;;;;;;;;;;4508468;28;20038;-61
2023/02/12 03:52:54;;;;;;;1.85;1.75;;;;;;;;;;4509133;28;20348;-60
2023/02/12 03:55:05;;;;;;;1.80;1.70;;;;;;;;;;4510197;28;20044;-61
2023/02/12 03:57:20;;;;;;;1.80;1.70;;;;;;;;;;4518429;28;20040;-62
2023/02/12 03:59:33;;;;;;;2.10;1.90;;;;;;;;;;4508911;28;20041;-61
2023/02/12 04:01:43;;;;;;;1.80;1.70;;;;;;;;;;4509746;28;20094;-61
2023/02/12 04:03:54;;;;;;;1.83;1.73;;;;;;;;;;4508635;28;20133;-61
2023/02/12 04:06:04;;;;;;;1.92;1.83;;;;;;;;;;4508548;28;20069;-61
2023/02/12 04:08:15;;;;;;;1.83;1.73;;;;;;;;;;4509129;28;20109;-61
2023/02/12 04:10:48;;;;;;;1.90;1.80;;;;;;;;;;4506659;28;20340;-61
2023/02/12 04:13:17;;;;;;;1.90;1.80;;;;;;;;;;4507202;28;20050;-61
2023/02/12 04:15:28;;;;;;;1.95;1.85;;;;;;;;;;4506126;28;20042;-61
2023/02/12 04:17:57;;;;;;;1.77;1.67;;;;;;;;;;4506805;28;20025;-61
2023/02/12 04:20:10;;;;;;;1.90;1.80;;;;;;;;;;4507820;28;20117;-61
2023/02/12 04:22:20;;;;;;;2.17;1.98;;;;;;;;;;4507150;28;20045;-60
2023/02/12 04:24:43;;;;;;;1.88;1.77;;;;;;;;;;4508534;28;20413;-61
2023/02/12 04:26:56;;;;;;;1.80;1.70;;;;;;;;;;4507279;28;20984;-61
2023/02/12 04:29:15;;;;;;;1.98;1.88;;;;;;;;;;4507601;28;21747;-61
2023/02/12 04:31:47;;;;;;;1.80;1.70;;;;;;;;;;4507708;28;20585;-61
2023/02/12 04:34:08;;;;;;;1.73;1.63;;;;;;;;;;4516365;28;20052;-61
2023/02/12 04:36:20;;;;;;;1.70;1.60;;;;;;;;;;4509327;28;20031;-61
2023/02/12 04:38:33;;;;;;;1.70;1.60;;;;;;;;;;4506702;28;20616;-60
2023/02/12 04:40:44;;;;;;;1.90;1.80;;;;;;;;;;4508321;28;20084;-62
2023/02/12 04:42:54;;;;;;;2.00;1.90;;;;;;;;;;4508144;28;20096;-60
2023/02/12 04:45:05;;;;;;;2.00;1.80;;;;;;;;;;4511913;28;20166;-61
2023/02/12 04:47:15;;;;;;;1.90;1.80;;;;;;;;;;4507828;28;20565;-61
2023/02/12 04:49:26;;;;;;;1.83;1.73;;;;;;;;;;4508374;28;20044;-61
2023/02/12 04:51:36;;;;;;;1.70;1.60;;;;;;;;;;4507453;28;20692;-61
2023/02/12 04:53:47;;;;;;;2.00;1.90;;;;;;;;;;4507483;28;20033;-61
2023/02/12 04:55:57;;;;;;;2.10;1.92;;;;;;;;;;4516151;28;20112;-59
2023/02/12 04:58:08;;;;;;;1.60;1.50;;;;;;;;;;4507958;28;20475;-61
2023/02/12 05:00:18;;;;;;;1.80;1.70;;;;;;;;;;4507793;28;20034;-61
2023/02/12 05:02:29;;;;;;;1.60;1.50;;;;;;;;;;4507264;28;20038;-60
2023/02/12 05:04:39;;;;;;;1.77;1.67;;;;;;;;;;4506075;28;20478;-61
2023/02/12 05:06:49;;;;;;;1.63;1.52;;;;;;;;;;4508209;28;20046;-61
2023/02/12 05:09:00;;;;;;;1.70;1.60;;;;;;;;;;4508007;28;20036;-61
2023/02/12 05:11:10;;;;;;;1.80;1.70;;;;;;;;;;4507881;28;20658;-61
2023/02/12 05:13:20;;;;;;;1.88;1.77;;;;;;;;;;4509849;28;20033;-61
2023/02/12 05:15:31;;;;;;;1.73;1.63;;;;;;;;;;4508338;28;20042;-61
2023/02/12 05:17:41;;;;;;;1.75;1.65;;;;;;;;;;4507415;28;20037;-61
2023/02/12 05:19:51;;;;;;;1.65;1.55;;;;;;;;;;4511437;28;20108;-61
2023/02/12 05:22:02;;;;;;;1.70;1.42;;;;;;;;;;4508057;28;20969;-62
2023/02/12 05:24:12;;;;;;;1.80;1.70;;;;;;;;;;4507472;28;20037;-61
2023/02/12 05:26:22;;;;;;;1.70;1.60;;;;;;;;;;4507020;28;20033;-61
2023/02/12 05:28:33;;;;;;;1.88;1.77;;;;;;;;;;4514825;28;20087;-61
2023/02/12 05:30:43;;;;;;;1.83;1.73;;;;;;;;;;4507479;28;20144;-60
2023/02/12 05:32:53;;;;;;;1.60;1.50;;;;;;;;;;4510881;28;20140;-61
2023/02/12 05:35:04;;;;;;;1.52;1.42;;;;;;;;;;4507571;28;20044;-61
2023/02/12 05:37:14;;;;;;;1.60;1.50;;;;;;;;;;4508999;28;20034;-60
2023/02/12 05:39:25;;;;;;;1.60;1.50;;;;;;;;;;4507431;28;21107;-61
2023/02/12 05:41:35;;;;;;;1.77;1.67;;;;;;;;;;4507568;28;20041;-61
2023/02/12 05:43:45;;;;;;;1.70;1.60;;;;;;;;;;4506744;28;20136;-61
2023/02/12 05:45:59;;;;;;;1.40;1.30;;;;;;;;;;4504819;28;20042;-61
2023/02/12 05:48:09;;;;;;;2.03;1.92;;;;;;;;;;4508421;28;20812;-62
2023/02/12 05:50:20;;;;;;;1.50;1.40;;;;;;;;;;4508955;28;20044;-61
2023/02/12 05:52:30;;;;;;;1.55;1.45;;;;;;;;;;4509738;28;20039;-61
2023/02/12 05:54:40;;;;;;;1.52;1.42;;;;;;;;;;4509485;28;20068;-62
2023/02/12 05:56:51;;;;;;;1.60;1.50;;;;;;;;;;4505589;28;20042;-61
2023/02/12 05:59:05;;;;;;;1.45;1.35;;;;;;;;;;4508073;28;20478;-61
2023/02/12 06:01:17;;;;;;;1.50;1.40;;;;;;;;;;4506962;28;20112;-61
2023/02/12 06:03:28;;;;;;;1.40;1.30;;;;;;;;;;4509872;28;20337;-61
2023/02/12 06:05:38;;;;;;;1.58;1.48;;;;;;;;;;4506119;28;20032;-61
2023/02/12 06:07:48;;;;;;;1.45;1.35;;;;;;;;;;4510634;28;20046;-61
2023/02/12 06:09:58;;;;;;;1.48;1.38;;;;;;;;;;4507812;28;20029;-61
2023/02/12 06:12:09;;;;;;;1.50;1.40;;;;;;;;;;4505847;28;20497;-61
2023/02/12 06:14:20;;;;;;;1.52;1.42;;;;;;;;;;4505248;28;20053;-61
2023/02/12 06:16:30;;;;;;;1.70;1.60;;;;;;;;;;4517135;28;20539;-61
2023/02/12 06:18:41;;;;;;;1.50;1.40;;;;;;;;;;4514396;28;20490;-62
2023/02/12 06:20:53;;;;;;;1.50;1.40;;;;;;;;;;4508716;28;20037;-61
2023/02/12 06:23:03;;;;;;;1.45;1.35;;;;;;;;;;4506282;28;20670;-61
2023/02/12 06:25:13;;;;;;;1.58;1.48;;;;;;;;;;4506809;28;20371;-62
2023/02/12 06:27:24;;;;;;;1.40;1.30;;;;;;;;;;4505765;28;20033;-59
2023/02/12 06:29:34;;;;;;;1.60;1.50;;;;;;;;;;4506628;28;20033;-61
2023/02/12 06:31:45;;;;;;;1.52;1.42;;;;;;;;;;4506997;28;20037;-62
2023/02/12 06:33:56;;;;;;;1.33;1.23;;;;;;;;;;4505132;28;20052;-61
2023/02/12 06:36:07;;;;;;;1.45;1.35;;;;;;;;;;4505851;28;20038;-61
2023/02/12 06:38:17;;;;;;;1.58;1.48;;;;;;;;;;4508584;28;20800;-61
2023/02/12 06:40:27;;;;;;;1.55;1.45;;;;;;;;;;4505109;28;20042;-61
2023/02/12 06:42:38;;;;;;;1.40;1.30;;;;;;;;;;4506586;28;20050;-61
2023/02/12 06:44:48;;;;;;;1.40;1.30;;;;;;;;;;4506892;28;20053;-61
2023/02/12 06:46:58;;;;;;;1.40;1.30;;;;;;;;;;4511363;28;20046;-62
2023/02/12 06:49:10;;;;;;;1.30;1.20;;;;;;;;;;4514601;28;20135;-61
2023/02/12 06:51:22;;;;;;;1.40;1.30;;;;;;;;;;4507060;28;20046;-61
2023/02/12 06:53:33;;;;;;;1.70;1.60;;;;;;;;;;4504755;28;20121;-61
2023/02/12 06:55:43;;;;;;;1.30;1.20;;;;;;;;;;4516806;28;20115;-61
2023/02/12 06:57:54;;;;;;;1.50;1.40;;;;;;;;;;4504647;28;20045;-62
2023/02/12 07:00:04;;;;;;;1.35;1.25;;;;;;;;;;4504391;28;20029;-62
2023/02/12 07:02:15;;;;;;;1.40;1.30;;;;;;;;;;4505446;28;20045;-62
2023/02/12 07:04:25;;;;;;;1.30;1.20;;;;;;;;;;4504122;28;20037;-62
2023/02/12 07:06:36;;;;;;;1.20;1.10;;;;;;;;;;4506152;28;20746;-62
2023/02/12 07:08:46;;;;;;;1.40;1.30;;;;;;;;;;4504081;28;20128;-62
2023/02/12 07:10:56;;;;;;;1.52;1.42;;;;;;;;;;4505062;28;20116;-62
2023/02/12 07:13:07;;;;;;;1.40;1.30;;;;;;;;;;4503996;28;20093;-62
2023/02/12 07:15:17;;;;;;;1.35;1.25;;;;;;;;;;4503911;28;20033;-62
2023/02/12 07:17:30;;;;;;;2.30;2.10;;;;;;;;;;4505323;28;20480;-62
2023/02/12 07:19:41;;;;;;;1.65;1.55;;;;;;;;;;4505782;28;20038;-62
2023/02/12 07:21:51;;;;;;;2.58;2.38;;;;;;;;;;4503677;28;20030;-62
2023/02/12 07:24:01;;;;;;;2.83;2.63;;;;;;;;;;4504034;28;20034;-63
2023/02/12 07:26:12;;;;;;;1.48;1.38;;;;;;;;;;4509710;28;20123;-63
2023/02/12 07:28:22;;;;;;;1.40;1.30;;;;;;;;;;4508713;28;20030;-62
2023/02/12 07:30:32;;;;;;;1.60;1.40;;;;;;;;;;4506101;28;20544;-62
2023/02/12 07:32:43;;;;;;;1.40;1.30;;;;;;;;;;4507886;28;20081;-62
2023/02/12 07:34:53;;;;;;;1.52;1.42;;;;;;;;;;4507562;28;20092;-62
2023/02/12 07:37:03;;;;;;;1.50;1.40;;;;;;;;;;4516164;28;20038;-62
2023/02/12 07:39:14;;;;;;;1.60;1.50;;;;;;;;;;4507173;28;20038;-61
2023/02/12 07:41:28;;;;;;;1.60;1.50;;;;;;;;;;4507571;28;20053;-63
2023/02/12 07:43:42;;;;;;;1.50;1.40;;;;;;;;;;4507384;28;20073;-64
2023/02/12 07:45:52;;;;;;;1.80;1.60;;;;;;;;;;4508067;28;20965;-63
2023/02/12 07:48:03;;;;;;;1.40;1.30;;;;;;;;;;4507787;28;20029;-63
2023/02/12 07:50:13;;;;;;;1.50;1.40;;;;;;;;;;4507016;28;20046;-64
2023/02/12 07:52:23;;;;;;;2.65;2.45;;;;;;;;;;4506894;28;20762;-61
2023/02/12 07:54:34;;;;;;;1.70;1.60;;;;;;;;;;4506553;28;20046;-62
2023/02/12 07:56:45;;;;;;;1.45;1.35;;;;;;;;;;4508242;28;20713;-62
2023/02/12 07:58:56;;;;;;;1.60;1.50;;;;;;;;;;4517368;28;20052;-62
2023/02/12 08:01:13;;;;;;;1.60;1.50;;;;;;;;;;4507183;28;20073;-62
2023/02/12 08:03:26;;;;;;;1.70;1.60;;;;;;;;;;4507165;28;20124;-62
2023/02/12 08:05:36;;;;;;;1.67;1.50;;;;;;;;;;4507545;28;20202;-62
2023/02/12 08:07:47;;;;;;;1.58;1.48;;;;;;;;;;4507521;28;20316;-61
2023/02/12 08:09:57;;;;;;;1.80;1.70;;;;;;;;;;4507977;28;20029;-63
2023/02/12 08:12:07;;;;;;;1.60;1.50;;;;;;;;;;4517158;28;20776;-62
2023/02/12 08:14:19;;;;;;;1.70;1.58;;;;;;;;;;4499485;28;20052;-63
2023/02/12 08:16:30;;;;;;;1.70;1.60;;;;;;;;;;4506966;28;20025;-63
2023/02/12 08:18:41;;;;;;;1.63;1.52;;;;;;;;;;4508306;28;20190;-62
2023/02/12 08:20:51;;;;;;;1.48;1.38;;;;;;;;;;4507439;28;20052;-62
2023/02/12 08:23:01;;;;;;;1.95;1.60;;;;;;;;;;4517938;28;20041;-63
2023/02/12 08:25:12;;;;;;;1.42;1.33;;;;;;;;;;4509060;28;20075;-62
2023/02/12 08:27:22;;;;;;;2.60;2.40;;;;;;;;;;4515715;28;20116;-63
2023/02/12 08:29:32;;;;;;;1.45;1.35;;;;;;;;;;4506400;28;20040;-62
2023/02/12 08:31:44;;;;;;;1.70;1.60;;;;;;;;;;4507538;28;20398;-62
2023/02/12 08:33:55;;;;;;;1.63;1.52;;;;;;;;;;4506981;28;20041;-62
2023/02/12 08:36:06;;;;;;;1.50;1.40;;;;;;;;;;4506521;28;20033;-61
2023/02/12 08:38:17;;;;;;;1.75;1.55;;;;;;;;;;4506485;28;20052;-65
2023/02/12 08:40:27;;;;;;;1.40;1.30;;;;;;;;;;4506457;28;20540;-64
2023/02/12 08:42:37;;;;;;;1.55;1.45;;;;;;;;;;4506552;28;20549;-61
2023/02/12 08:44:48;;;;;;;2.38;2.17;;;;;;;;;;4507732;28;20488;-62
2023/02/12 08:46:58;;;;;;;2.20;2.00;;;;;;;;;;4508605;28;20045;-62
2023/02/12 08:49:10;;;;;;;2.42;2.22;;;;;;;;;;4507481;28;20065;-62
2023/02/12 08:51:23;;;;;;;2.15;1.95;;;;;;;;;;4506165;28;20683;-62
2023/02/12 08:53:33;;;;;;;2.33;2.13;;;;;;;;;;4508679;28;20033;-62
2023/02/12 08:55:47;;;;;;;2.30;2.10;;;;;;;;;;4506026;28;20042;-62
2023/02/12 08:57:57;;;;;;;7.50;6.50;;;;;;;;;;4506895;28;20057;-62
2023/02/12 09:00:08;;;;;;;7.90;7.10;;;;;;;;;;4507928;28;20920;-60
2023/02/12 09:02:18;;;;;;;7.47;6.68;;;;;;;;;;4510462;28;20045;-68
2023/02/12 09:04:29;;;;;;;7.38;6.68;;;;;;;;;;4516069;28;20768;-68
2023/02/12 09:06:39;;;;;;;8.05;7.22;;;;;;;;;;4507678;28;20025;-67
2023/02/12 09:08:50;;;;;;;8.20;7.30;;;;;;;;;;4508763;28;20126;-67
2023/02/12 09:11:03;;;;;;;8.35;7.55;;;;;;;;;;4507798;28;20029;-64
2023/02/12 09:13:14;;;;;;;8.77;7.88;;;;;;;;;;4508883;28;20076;-64
2023/02/12 09:15:24;;;;;;;8.35;7.55;;;;;;;;;;4509307;28;20457;-64
2023/02/12 09:17:35;;;;;;;8.32;7.43;;;;;;;;;;4509547;28;21008;-65
2023/02/12 09:19:45;;;;;;;8.00;7.20;;;;;;;;;;4506695;28;20452;-65
2023/02/12 09:21:55;;;;;;;7.80;7.00;;;;;;;;;;4509014;28;20040;-65
2023/02/12 09:24:06;;;;;;;8.40;7.50;;;;;;;;;;4517619;28;20042;-65
2023/02/12 09:26:19;;;;;;;8.52;7.63;;;;;;;;;;4508732;28;20037;-65
2023/02/12 09:28:29;;;;;;;8.43;7.63;;;;;;;;;;4507445;28;20044;-65
2023/02/12 09:30:40;;;;;;;8.10;7.30;;;;;;;;;;4505833;28;20040;-65
2023/02/12 09:32:50;;;;;;;8.40;7.50;;;;;;;;;;4506858;28;20091;-65
2023/02/12 09:35:00;;;;;;;8.27;7.47;;;;;;;;;;4515373;28;20034;-65
2023/02/12 09:37:11;;;;;;;7.80;7.00;;;;;;;;;;4506658;28;20045;-65
2023/02/12 09:39:21;;;;;;;7.93;7.13;;;;;;;;;;4509051;28;20444;-65
2023/02/12 09:41:45;;;;;;;8.30;7.28;;;;;;;;;;4505863;28;20041;-65
2023/02/12 09:44:05;;;;;;;7.95;7.15;;;;;;;;;;4511959;28;20045;-65
2023/02/12 09:46:19;;;;;;;8.05;7.25;;;;;;;;;;4507368;28;20030;-65
2023/02/12 09:48:34;;;;;;;7.53;6.78;;;;;;;;;;4508240;28;20037;-65
2023/02/12 09:50:50;;;;;;;7.25;6.55;;;;;;;;;;4507918;28;20123;-65
2023/02/12 09:53:01;;;;;;;7.72;6.97;;;;;;;;;;4522583;28;20144;-64
2023/02/12 09:55:14;;;;;;;7.28;6.57;;;;;;;;;;4508069;28;20105;-65
2023/02/12 09:57:28;;;;;;;7.88;7.07;;;;;;;;;;4507335;28;20049;-64
2023/02/12 09:59:58;;;;;;;6.60;5.90;;;;;;;;;;4505151;28;20038;-65
2023/02/12 10:02:13;;;;;;;6.90;6.20;;;;;;;;;;4505830;28;20061;-65
2023/02/12 10:04:24;;;;;;;7.22;6.38;;;;;;;;;;4506416;28;20038;-65
2023/02/12 10:06:54;;;;;;;7.57;6.78;;;;;;;;;;4507602;28;20045;-65
2023/02/12 10:09:19;;;;;;;7.85;7.05;;;;;;;;;;4505916;28;20629;-65
2023/02/12 10:11:49;;;;;;;7.40;6.53;;;;;;;;;;4506581;28;20096;-65
2023/02/12 10:13:59;;;;;;;7.00;6.30;;;;;;;;;;4508806;28;20588;-65
2023/02/12 10:16:18;;;;;;;7.60;6.75;;;;;;;;;;4507035;28;20034;-65
2023/02/12 10:18:49;;;;;;;6.90;6.20;;;;;;;;;;4522012;28;21374;-65
2023/02/12 10:21:12;;;;;;;6.95;6.25;;;;;;;;;;4499064;28;20045;-65
2023/02/12 10:23:36;;;;;;;16.10;14.70;;;;;;;;;;4516178;28;20041;-65
2023/02/12 10:26:13;;;;;;;15.52;14.20;;;;;;;;;;4505954;28;20117;-65
2023/02/12 10:28:41;;;;;;;16.67;15.18;;;;;;;;;;4502923;28;20557;-65
2023/02/12 10:30:52;;;;;;;17.38;15.77;;;;;;;;;;4507559;28;20033;-65
2023/02/12 10:33:04;;;;;;;16.83;15.43;;;;;;;;;;4507201;28;20037;-65
2023/02/12 10:35:15;;;;;;;17.92;16.42;;;;;;;;;;4506572;28;20050;-65
2023/02/12 10:37:31;;;;;;;17.65;16.15;;;;;;;;;;4511206;28;20565;-65
2023/02/12 10:39:44;;;;;;;18.70;17.10;;;;;;;;;;4507484;28;20034;-65
2023/02/12 10:42:04;;;;;;;18.60;17.00;;;;;;;;;;4506396;28;20636;-65
2023/02/12 10:44:15;;;;;;;19.75;18.13;;;;;;;;;;4507198;28;20088;-65
2023/02/12 10:46:29;;;;;;;19.02;17.42;;;;;;;;;;4505968;28;20089;-64
2023/02/12 10:48:40;;;;;;;18.88;17.33;;;;;;;;;;4506438;28;20025;-65
2023/02/12 10:51:03;;;;;;;19.60;18.00;;;;;;;;;;4507677;28;20600;-65
2023/02/12 10:53:33;;;;;;;20.13;18.42;;;;;;;;;;4506036;28;20042;-65
2023/02/12 10:55:43;;;;;;;20.50;18.77;;;;;;;;;;4507171;28;20710;-65
2023/02/12 10:57:54;;;;;;;19.98;18.27;;;;;;;;;;4509312;28;20043;-65
2023/02/12 11:00:34;;;;;;;20.85;19.05;;;;;;;;;;4491238;28;20038;-65
2023/02/12 11:02:58;;;;;;;21.30;19.50;;;;;;;;;;4501664;28;20049;-65
2023/02/12 11:05:21;;;;;;;21.10;19.30;;;;;;;;;;4509507;28;20037;-65
2023/02/12 11:07:44;;;;;;;22.05;20.17;;;;;;;;;;4509090;28;20192;-65
2023/02/12 11:09:55;;;;;;;22.42;20.52;;;;;;;;;;4511787;28;20030;-64
2023/02/12 11:12:14;;;;;;;22.38;20.48;;;;;;;;;;4509481;28;20041;-65
2023/02/12 11:14:24;;;;;;;21.80;20.02;;;;;;;;;;4508304;28;20105;-65
2023/02/12 11:16:36;;;;;;;22.45;20.58;;;;;;;;;;4509361;28;20112;-65
2023/02/12 11:18:56;;;;;;;23.05;21.10;;;;;;;;;;4510429;28;20045;-65
2023/02/12 11:21:10;;;;;;;23.60;21.60;;;;;;;;;;4508004;28;20615;-65
2023/02/12 11:23:25;;;;;;;23.45;21.52;;;;;;;;;;4498340;28;20057;-65
2023/02/12 11:25:36;;;;;;;23.70;21.70;;;;;;;;;;4498266;28;20052;-65
2023/02/12 11:28:06;;;;;;;23.58;21.63;;;;;;;;;;4517633;28;20036;-64
2023/02/12 11:30:19;;;;;;;24.05;22.05;;;;;;;;;;4506044;28;20037;-65
2023/02/12 11:32:29;;;;;;;4.60;4.10;;;;;;;;;;4499985;28;20645;-65
2023/02/12 11:34:39;;;;;;;3.88;3.50;;;;;;;;;;4514434;28;20076;-65
2023/02/12 11:36:51;;;;;;;4.43;3.80;;;;;;;;;;4495584;28;20141;-65
2023/02/12 11:39:02;;;;;;;3.30;2.63;;;;;;;;;;4506665;28;20141;-64
2023/02/12 11:41:25;;;;;;;3.30;3.00;;;;;;;;;;4514641;28;20520;-64
2023/02/12 11:43:38;;;;;;;3.08;2.78;;;;;;;;;;4508933;28;20678;-66
2023/02/12 11:45:51;;;;;;;2.90;2.60;;;;;;;;;;4493624;28;20029;-65
2023/02/12 11:48:01;;;;;;;2.72;2.50;;;;;;;;;;4509637;28;21001;-65
2023/02/12 11:50:18;;;;;;;3.00;2.70;;;;;;;;;;4509957;28;20030;-65
2023/02/12 11:52:29;;;;;;;2.67;2.47;;;;;;;;;;4519243;28;21279;-64
2023/02/12 11:54:41;;;;;;;2.53;2.28;;;;;;;;;;4509720;28;20097;-65
2023/02/12 11:56:52;;;;;;;2.63;2.40;;;;;;;;;;4508361;28;20030;-65
2023/02/12 11:59:10;;;;;;;2.47;2.28;;;;;;;;;;4510161;28;20044;-65
2023/02/12 12:01:26;;;;;;;2.50;2.30;;;;;;;;;;4510064;28;20038;-65
2023/02/12 12:03:43;;;;;;;2.47;2.28;;;;;;;;;;4507753;28;20112;-65
2023/02/12 12:05:55;;;;;;;2.40;2.20;;;;;;;;;;4509201;28;20028;-65
2023/02/12 12:08:11;;;;;;;2.50;2.30;;;;;;;;;;4511717;28;20047;-65
2023/02/12 12:10:34;;;;;;;2.45;2.10;;;;;;;;;;4509214;28;20040;-65
2023/02/12 12:12:51;;;;;;;3.05;2.20;;;;;;;;;;4517921;28;20183;-65
2023/02/12 12:20:10;;;;;;;1.92;1.70;;;;;;;;;;4507828;28;20487;-64
2023/02/12 12:22:28;;;;;;;2.22;1.80;;;;;;;;;;4509417;28;20612;-64
2023/02/12 12:24:38;;;;;;;1.80;1.70;;;;;;;;;;4508028;28;20520;-65
2023/02/12 12:26:59;;;;;;;1.75;1.60;;;;;;;;;;4507472;28;20034;-65
2023/02/12 12:29:13;;;;;;;2.28;1.60;;;;;;;;;;4516941;28;20128;-64
2023/02/12 12:31:33;;;;;;;1.75;1.50;;;;;;;;;;4507523;28;20034;-65
2023/02/12 12:33:46;;;;;;;2.42;1.70;;;;;;;;;;4508670;28;20041;-65
2023/02/12 12:36:01;;;;;;;1.80;1.67;;;;;;;;;;4507193;28;21556;-65
2023/02/12 12:38:14;;;;;;;1.92;1.65;;;;;;;;;;4509245;28;20786;-65
2023/02/12 12:40:32;;;;;;;1.90;1.60;;;;;;;;;;4507936;28;20029;-65
2023/02/12 12:42:49;;;;;;;2.55;2.05;;;;;;;;;;4502077;28;20037;-65
2023/02/12 12:45:37;;;;;;;1.95;1.63;;;;;;;;;;4507647;28;20044;-66
2023/02/12 12:47:53;;;;;;;2.20;1.95;;;;;;;;;;4481796;28;20042;-65
2023/02/12 12:50:22;;;;;;;2.53;2.10;;;;;;;;;;4489704;28;20092;-65
2023/02/12 12:52:45;;;;;;;2.03;1.83;;;;;;;;;;4521730;28;20076;-65
2023/02/12 12:55:02;;;;;;;2.25;2.05;;;;;;;;;;4507518;28;20057;-65
2023/02/12 12:57:15;;;;;;;;;;;;;;;;;;4508009;28;20144;-65
2023/02/12 12:59:26;;;;;;;2.50;2.10;;;;;;;;;;4509250;28;20051;-64
2023/02/12 13:01:45;;;;;;;2.67;2.30;;;;;;;;;;4507804;28;20033;-65
2023/02/12 13:03:58;;;;;;;2.47;2.15;;;;;;;;;;4505859;28;20600;-63
2023/02/12 13:06:27;;;;;;;2.40;2.00;;;;;;;;;;4507927;28;20980;-63
2023/02/12 13:08:37;;;;;;;2.55;2.28;;;;;;;;;;4508410;28;20139;-67
2023/02/12 13:10:49;;;;;;;2.38;2.15;;;;;;;;;;4508597;28;20132;-65
2023/02/12 13:12:59;;;;;;;1.90;1.70;;;;;;;;;;4507701;28;20580;-64
2023/02/12 13:15:20;;;;;;;1.90;1.50;;;;;;;;;;4509710;28;20063;-66
2023/02/12 13:17:39;;;;;;;1.55;1.30;;;;;;;;;;4507664;28;20044;-64
2023/02/12 13:20:08;;;;;;;1.23;1.10;;;;;;;;;;4517373;28;20554;-66
2023/02/12 13:22:25;;;;;;;1.65;1.30;;;;;;;;;;4506719;28;20112;-65
2023/02/12 13:24:36;;;;;;;;;;;;;;;;;;4508881;28;20065;-64
2023/02/12 13:26:52;;;;;;;1.48;1.30;;;;;;;;;;4506976;28;20011;-66